Time;durP1;ratioP1;P1;durP2;ratioP2;P2;SDS_P1;SDS_P2;PMS_P1;PMS_P2;Temp;Humidity;BMP_temperature;BMP_pressure;BME280_temperature;BME280_humidity;BME280_pressure;Samples;Min_cycle;Max_cycle;Signal;HPM_P1;HPM_P2
2023/08/17 00:00:18;;;;;;;7.60;2.30;;;16.00;99.90;;;;;;5041275;28;20033;-84
2023/08/17 00:02:43;;;;;;;6.05;2.10;;;16.00;99.90;;;;;;5018748;28;20056;-84
2023/08/17 00:05:10;;;;;;;6.85;2.10;;;16.00;99.90;;;;;;5038178;28;20036;-84
2023/08/17 00:07:36;;;;;;;7.68;2.45;;;16.00;99.90;;;;;;5069126;28;20091;-84
2023/08/17 00:10:02;;;;;;;6.95;2.30;;;16.00;99.90;;;;;;5055921;28;20060;-83
2023/08/17 00:12:28;;;;;;;6.90;2.10;;;16.00;99.90;;;;;;5053925;28;20138;-83
2023/08/17 00:14:54;;;;;;;7.22;2.03;;;16.00;99.90;;;;;;5036995;28;20040;-83
2023/08/17 00:17:20;;;;;;;7.45;2.50;;;16.00;99.90;;;;;;5051251;28;20070;-84
2023/08/17 00:19:46;;;;;;;6.35;2.00;;;16.00;99.90;;;;;;5042749;28;20045;-84
2023/08/17 00:22:12;;;;;;;6.72;2.05;;;16.00;99.90;;;;;;5050026;28;20033;-84
2023/08/17 00:24:38;;;;;;;11.23;2.47;;;16.00;99.90;;;;;;5031316;28;20124;-84
2023/08/17 00:27:04;;;;;;;7.38;2.30;;;16.00;99.90;;;;;;5036561;28;20063;-84
2023/08/17 00:29:30;;;;;;;8.18;2.33;;;16.10;99.90;;;;;;5058747;28;20070;-84
2023/08/17 00:31:56;;;;;;;8.15;2.20;;;16.00;99.90;;;;;;5038349;28;20025;-84
2023/08/17 00:34:21;;;;;;;9.70;2.25;;;16.00;99.90;;;;;;5060317;28;20293;-84
2023/08/17 00:36:47;;;;;;;7.05;2.30;;;16.00;99.90;;;;;;5032541;28;20029;-83
2023/08/17 00:39:14;;;;;;;5.80;1.77;;;16.00;99.90;;;;;;5050314;28;20262;-83
2023/08/17 00:41:40;;;;;;;6.78;1.92;;;16.00;99.90;;;;;;5059395;28;20056;-83
2023/08/17 00:44:06;;;;;;;7.80;2.30;;;16.00;99.90;;;;;;5048584;28;20052;-83
2023/08/17 00:46:32;;;;;;;9.27;2.10;;;16.00;99.90;;;;;;5052333;28;20028;-83
2023/08/17 00:48:58;;;;;;;6.53;1.98;;;16.00;99.90;;;;;;5056605;28;20055;-83
2023/08/17 00:51:25;;;;;;;6.68;1.90;;;16.00;99.90;;;;;;5060135;28;20040;-83
2023/08/17 00:53:52;;;;;;;8.50;2.13;;;16.00;99.90;;;;;;5050348;28;20074;-84
2023/08/17 00:56:18;;;;;;;6.65;2.00;;;16.00;99.90;;;;;;5037322;28;20041;-84
2023/08/17 00:58:44;;;;;;;7.43;2.30;;;16.00;99.90;;;;;;5053358;28;20078;-84
2023/08/17 01:01:10;;;;;;;9.35;2.30;;;16.00;99.90;;;;;;5050759;28;20809;-84
2023/08/17 01:03:36;;;;;;;6.80;2.38;;;16.00;99.90;;;;;;5046408;28;20023;-84
2023/08/17 01:06:02;;;;;;;7.28;2.30;;;16.00;99.90;;;;;;5049176;28;20029;-84
2023/08/17 01:08:29;;;;;;;6.60;2.20;;;16.00;99.90;;;;;;5074077;28;20032;-83
2023/08/17 01:11:20;;;;;;;6.75;2.00;;;16.00;99.90;;;;;;5036397;28;20163;-84
2023/08/17 01:14:24;;;;;;;7.82;2.10;;;16.00;99.90;;;;;;5068316;28;20057;-84
2023/08/17 01:17:01;;;;;;;7.82;2.53;;;15.90;99.90;;;;;;5056394;28;20072;-84
2023/08/17 01:19:28;;;;;;;9.18;2.58;;;15.90;99.90;;;;;;5054466;28;20048;-83
2023/08/17 01:22:03;;;;;;;8.65;2.38;;;15.90;99.90;;;;;;5069950;28;20202;-83
2023/08/17 01:24:29;;;;;;;6.93;2.13;;;15.90;99.90;;;;;;5043662;28;20045;-83
2023/08/17 01:26:55;;;;;;;8.13;2.65;;;15.90;99.90;;;;;;5068018;28;20112;-83
2023/08/17 01:29:21;;;;;;;7.90;2.53;;;15.90;99.90;;;;;;5037563;28;20044;-83
2023/08/17 01:32:12;;;;;;;8.77;2.42;;;15.90;99.90;;;;;;5050131;28;20156;-83
2023/08/17 01:34:47;;;;;;;6.85;2.55;;;15.80;99.90;;;;;;5050629;28;20179;-83
2023/08/17 01:37:18;;;;;;;7.30;2.50;;;15.80;99.90;;;;;;5060958;28;20051;-84
2023/08/17 01:39:48;;;;;;;7.22;2.40;;;15.80;99.90;;;;;;5071972;28;20047;-84
2023/08/17 01:42:15;;;;;;;7.43;2.20;;;15.80;99.90;;;;;;5044628;28;20036;-83
2023/08/17 01:44:41;;;;;;;7.32;2.17;;;15.80;99.90;;;;;;5050830;28;20176;-83
2023/08/17 01:47:07;;;;;;;8.10;2.28;;;15.80;99.90;;;;;;5061320;28;20070;-83
2023/08/17 01:49:33;;;;;;;7.60;2.22;;;15.70;99.90;;;;;;5033820;28;20020;-84
2023/08/17 01:51:58;;;;;;;7.63;2.60;;;15.70;99.90;;;;;;5032213;28;20024;-84
2023/08/17 01:54:24;;;;;;;9.32;2.42;;;15.70;99.90;;;;;;5055122;28;20210;-84
2023/08/17 01:56:50;;;;;;;8.02;2.60;;;15.70;99.90;;;;;;5016912;28;20103;-83
2023/08/17 01:59:15;;;;;;;7.03;2.38;;;15.70;99.90;;;;;;5051808;28;20055;-83
2023/08/17 02:01:41;;;;;;;8.65;2.60;;;15.70;99.90;;;;;;5048709;28;20055;-84
2023/08/17 02:04:07;;;;;;;8.40;2.78;;;15.70;99.90;;;;;;5036531;28;20051;-84
2023/08/17 02:06:33;;;;;;;9.77;2.70;;;15.70;99.90;;;;;;5047923;28;20087;-83
2023/08/17 02:08:59;;;;;;;7.13;2.30;;;15.70;99.90;;;;;;5019114;28;20056;-83
2023/08/17 02:11:25;;;;;;;7.70;2.60;;;15.70;99.90;;;;;;5033179;28;20020;-85
2023/08/17 02:13:50;;;;;;;7.15;2.55;;;15.70;99.90;;;;;;5033272;28;20224;-84
2023/08/17 02:16:16;;;;;;;9.40;2.70;;;15.70;99.90;;;;;;5034870;28;20558;-83
2023/08/17 02:18:42;;;;;;;10.10;2.60;;;15.70;99.90;;;;;;5017541;28;20040;-84
2023/08/17 02:21:09;;;;;;;8.25;2.50;;;15.60;99.90;;;;;;5038503;28;20095;-83
2023/08/17 02:23:34;;;;;;;8.63;2.25;;;15.60;99.90;;;;;;5046284;28;20058;-84
2023/08/17 02:26:00;;;;;;;6.88;2.15;;;15.60;99.90;;;;;;5038297;28;20087;-83
2023/08/17 02:28:26;;;;;;;8.27;2.50;;;15.60;99.90;;;;;;5046165;28;20099;-83
2023/08/17 02:30:56;;;;;;;8.90;2.38;;;15.60;99.90;;;;;;5037647;28;20453;-82
2023/08/17 02:33:22;;;;;;;6.90;2.08;;;15.60;99.90;;;;;;5041570;28;20274;-83
2023/08/17 02:35:49;;;;;;;6.88;2.20;;;15.50;99.90;;;;;;5044232;28;20044;-83
2023/08/17 02:38:15;;;;;;;6.72;2.00;;;15.50;99.90;;;;;;5047137;28;20092;-83
2023/08/17 02:40:41;;;;;;;6.70;2.10;;;15.50;99.90;;;;;;5072099;28;20035;-84
2023/08/17 02:43:07;;;;;;;8.85;2.10;;;15.50;99.90;;;;;;5018933;28;20045;-84
2023/08/17 02:45:34;;;;;;;9.23;2.00;;;15.40;99.90;;;;;;5058704;28;20190;-84
2023/08/17 02:48:00;;;;;;;7.15;2.35;;;15.40;99.90;;;;;;5050848;28;20128;-84
2023/08/17 02:50:25;;;;;;;8.02;2.22;;;15.40;99.90;;;;;;5049639;28;20028;-84
2023/08/17 02:52:51;;;;;;;7.82;2.65;;;15.40;99.90;;;;;;5053058;28;20059;-83
2023/08/17 02:55:17;;;;;;;8.43;2.42;;;15.40;99.90;;;;;;5026581;28;20090;-83
2023/08/17 02:57:42;;;;;;;8.25;2.78;;;15.40;99.90;;;;;;5044728;28;20037;-84
2023/08/17 03:00:09;;;;;;;7.85;2.45;;;15.40;99.90;;;;;;5043980;28;20021;-84
2023/08/17 03:02:34;;;;;;;6.65;2.30;;;15.40;99.90;;;;;;5036985;28;20063;-83
2023/08/17 03:05:00;;;;;;;7.22;2.50;;;15.40;99.90;;;;;;5041718;28;20036;-83
2023/08/17 03:07:26;;;;;;;6.35;2.30;;;15.40;99.90;;;;;;5058368;28;20288;-83
2023/08/17 03:09:51;;;;;;;8.48;2.50;;;15.40;99.90;;;;;;5046362;28;20991;-83
2023/08/17 03:12:17;;;;;;;11.30;2.30;;;15.40;99.90;;;;;;5050737;28;20035;-83
2023/08/17 03:14:43;;;;;;;7.97;2.47;;;15.40;99.90;;;;;;5047263;28;20048;-83
2023/08/17 03:17:08;;;;;;;6.53;2.05;;;15.30;99.90;;;;;;5015360;28;20323;-83
2023/08/17 03:19:34;;;;;;;10.00;2.38;;;15.40;99.90;;;;;;5049874;28;20035;-83
2023/08/17 03:22:00;;;;;;;7.25;2.40;;;15.40;99.90;;;;;;5035030;28;20303;-83
2023/08/17 03:24:26;;;;;;;11.32;2.70;;;15.40;99.90;;;;;;5052532;28;20044;-83
2023/08/17 03:26:51;;;;;;;8.52;2.47;;;15.40;99.90;;;;;;5027079;28;20084;-83
2023/08/17 03:29:17;;;;;;;7.90;2.40;;;15.40;99.90;;;;;;5052852;28;20230;-83
2023/08/17 03:31:43;;;;;;;7.45;2.50;;;15.30;99.90;;;;;;5065850;28;20029;-84
2023/08/17 03:34:09;;;;;;;8.30;2.67;;;15.30;99.90;;;;;;5050742;28;20088;-84
2023/08/17 03:36:34;;;;;;;8.40;2.67;;;15.40;99.90;;;;;;5013264;28;20082;-83
2023/08/17 03:39:00;;;;;;;6.97;2.30;;;15.40;99.90;;;;;;5033609;28;20055;-83
2023/08/17 03:41:26;;;;;;;9.52;2.58;;;15.40;99.90;;;;;;5046317;28;20056;-83
2023/08/17 03:43:51;;;;;;;7.38;2.53;;;15.30;99.90;;;;;;5045338;28;20041;-83
2023/08/17 03:46:17;;;;;;;7.53;2.30;;;15.30;99.90;;;;;;5037351;28;20304;-83
2023/08/17 03:48:43;;;;;;;7.45;2.35;;;15.30;99.90;;;;;;5040240;28;20024;-83
2023/08/17 03:51:08;;;;;;;7.75;2.50;;;15.30;99.90;;;;;;5017803;28;20186;-83
2023/08/17 03:53:34;;;;;;;9.68;2.35;;;15.30;99.90;;;;;;5049194;28;20049;-83
2023/08/17 03:56:00;;;;;;;8.90;2.20;;;15.30;99.90;;;;;;5049901;28;20104;-84
2023/08/17 03:58:26;;;;;;;6.97;2.20;;;15.30;99.90;;;;;;5035544;28;20096;-83
2023/08/17 04:00:53;;;;;;;6.78;2.40;;;15.30;99.90;;;;;;5048332;28;20037;-83
2023/08/17 04:03:19;;;;;;;7.70;2.33;;;15.20;99.90;;;;;;5051929;28;20086;-83
2023/08/17 04:05:45;;;;;;;6.43;2.15;;;15.20;99.90;;;;;;5068703;28;20048;-83
2023/08/17 04:08:11;;;;;;;8.18;2.20;;;15.20;99.90;;;;;;5044026;28;20044;-83
2023/08/17 04:10:37;;;;;;;6.32;2.25;;;15.20;99.90;;;;;;5030496;28;20016;-83
2023/08/17 04:13:02;;;;;;;7.75;2.60;;;15.20;99.90;;;;;;5029755;28;20298;-83
2023/08/17 04:15:28;;;;;;;9.00;2.55;;;15.20;99.90;;;;;;5066245;28;20060;-83
2023/08/17 04:17:54;;;;;;;8.60;2.10;;;15.60;99.90;;;;;;5049995;28;20139;-83
2023/08/17 04:20:20;;;;;;;8.55;2.45;;;15.10;99.90;;;;;;5027248;28;20042;-83
2023/08/17 04:22:46;;;;;;;6.65;2.30;;;15.10;99.90;;;;;;5047652;28;20193;-83
2023/08/17 04:25:13;;;;;;;10.80;2.40;;;15.10;99.90;;;;;;5053558;28;20073;-82
2023/08/17 04:27:39;;;;;;;8.60;2.70;;;15.10;99.90;;;;;;5059993;28;20024;-83
2023/08/17 04:30:05;;;;;;;8.60;2.40;;;15.10;99.90;;;;;;5045277;28;20159;-83
2023/08/17 04:32:31;;;;;;;8.32;2.65;;;15.10;99.90;;;;;;5035554;28;20273;-83
2023/08/17 04:34:57;;;;;;;7.05;2.47;;;15.10;99.90;;;;;;5023386;28;20075;-83
2023/08/17 04:37:22;;;;;;;8.77;2.33;;;15.10;99.90;;;;;;5044304;28;20033;-84
2023/08/17 04:39:49;;;;;;;7.47;2.65;;;15.10;99.90;;;;;;5024592;28;20103;-84
2023/08/17 04:42:15;;;;;;;8.27;2.40;;;15.10;99.90;;;;;;5042979;28;20049;-83
2023/08/17 04:44:40;;;;;;;6.80;2.30;;;15.10;99.90;;;;;;5022269;28;20334;-84
2023/08/17 04:47:06;;;;;;;8.45;2.47;;;15.10;99.90;;;;;;5032301;28;20032;-83
2023/08/17 04:49:32;;;;;;;8.90;2.45;;;15.10;99.90;;;;;;5015298;28;20100;-84
2023/08/17 04:51:58;;;;;;;7.53;2.35;;;15.10;99.90;;;;;;5029635;28;20033;-83
2023/08/17 04:54:23;;;;;;;9.88;2.60;;;15.10;99.90;;;;;;5048311;28;20513;-84
2023/08/17 04:56:49;;;;;;;11.95;2.40;;;15.10;99.90;;;;;;5032083;28;20041;-84
2023/08/17 04:59:15;;;;;;;9.65;2.28;;;15.10;99.90;;;;;;5033726;28;20033;-85
2023/08/17 05:01:40;;;;;;;8.82;2.50;;;15.10;99.90;;;;;;5031128;28;20029;-84
2023/08/17 05:04:07;;;;;;;9.05;2.45;;;15.10;99.90;;;;;;5036077;28;21217;-84
2023/08/17 05:06:33;;;;;;;9.10;2.17;;;15.10;99.90;;;;;;5047353;28;20198;-84
2023/08/17 05:08:58;;;;;;;6.82;2.10;;;15.20;99.90;;;;;;5058674;28;20283;-84
2023/08/17 05:11:24;;;;;;;7.25;2.20;;;15.20;99.90;;;;;;5033512;28;20112;-84
2023/08/17 05:13:50;;;;;;;7.93;2.22;;;15.20;99.90;;;;;;5042957;28;20060;-84
2023/08/17 05:16:16;;;;;;;6.68;2.05;;;15.20;99.90;;;;;;5038332;28;20036;-84
2023/08/17 05:18:42;;;;;;;7.03;1.98;;;15.20;99.90;;;;;;5026289;28;20203;-85
2023/08/17 05:21:07;;;;;;;7.85;1.98;;;15.20;99.90;;;;;;5055370;28;20074;-84
2023/08/17 05:23:33;;;;;;;6.00;1.90;;;15.20;99.90;;;;;;5050971;28;20044;-84
2023/08/17 05:25:59;;;;;;;7.13;2.33;;;15.30;99.90;;;;;;5047216;28;20098;-85
2023/08/17 05:28:24;;;;;;;5.93;2.00;;;15.40;99.90;;;;;;5040093;28;20019;-84
2023/08/17 05:30:50;;;;;;;7.35;2.00;;;15.40;99.90;;;;;;5056164;28;20241;-84
2023/08/17 05:33:16;;;;;;;6.72;1.77;;;15.50;99.90;;;;;;5050426;28;20099;-83
2023/08/17 05:35:42;;;;;;;8.40;2.10;;;15.50;99.90;;;;;;5062411;28;20127;-84
2023/08/17 05:38:09;;;;;;;8.30;2.15;;;15.60;99.90;;;;;;5030011;28;20041;-84
2023/08/17 05:40:35;;;;;;;8.05;2.25;;;15.70;99.90;;;;;;5072005;28;20196;-84
2023/08/17 05:43:01;;;;;;;7.60;2.00;;;15.70;99.90;;;;;;5031590;28;20029;-84
2023/08/17 05:45:27;;;;;;;7.13;1.90;;;15.80;99.90;;;;;;5042262;28;20078;-84
2023/08/17 05:47:52;;;;;;;8.93;2.30;;;15.90;99.90;;;;;;5045788;28;20053;-83
2023/08/17 05:50:18;;;;;;;7.28;2.00;;;16.00;99.90;;;;;;5062323;28;20025;-84
2023/08/17 05:52:44;;;;;;;9.57;2.30;;;16.10;99.90;;;;;;5062518;28;20118;-84
2023/08/17 05:55:10;;;;;;;10.15;2.13;;;16.20;99.90;;;;;;5059977;28;20060;-84
2023/08/17 05:57:35;;;;;;;7.95;2.72;;;16.20;99.90;;;;;;5043154;28;20033;-86
2023/08/17 06:00:01;;;;;;;9.07;2.20;;;16.30;99.90;;;;;;5024356;28;20092;-84
2023/08/17 06:02:27;;;;;;;6.88;2.25;;;16.40;99.90;;;;;;5060628;28;20052;-85
2023/08/17 06:04:53;;;;;;;10.63;2.22;;;16.50;99.90;;;;;;5013269;28;20033;-85
2023/08/17 06:07:18;;;;;;;5.97;2.17;;;16.50;99.90;;;;;;5031108;28;20270;-84
2023/08/17 06:09:44;;;;;;;8.85;2.30;;;16.60;99.90;;;;;;5045116;28;20032;-84
2023/08/17 06:12:10;;;;;;;5.63;1.90;;;16.60;99.90;;;;;;5054862;28;20099;-83
2023/08/17 06:14:36;;;;;;;8.98;2.03;;;16.80;99.90;;;;;;5033512;28;20585;-84
2023/08/17 06:17:01;;;;;;;6.40;1.98;;;16.70;99.90;;;;;;5048105;28;20078;-84
2023/08/17 06:19:27;;;;;;;8.43;2.05;;;16.80;99.90;;;;;;5047126;28;20021;-84
2023/08/17 06:21:53;;;;;;;7.10;2.28;;;16.90;99.90;;;;;;5027855;28;20259;-84
2023/08/17 06:24:18;;;;;;;7.88;2.05;;;17.00;99.90;;;;;;5017744;28;20663;-84
2023/08/17 06:26:45;;;;;;;6.93;1.92;;;17.00;99.90;;;;;;5018839;28;20079;-85
2023/08/17 06:29:11;;;;;;;6.55;1.90;;;17.00;99.90;;;;;;5062591;28;20070;-83
2023/08/17 06:31:37;;;;;;;9.05;1.92;;;17.00;99.90;;;;;;5027364;28;20091;-83
2023/08/17 06:34:03;;;;;;;8.73;2.55;;;17.10;99.90;;;;;;5035088;28;20045;-83
2023/08/17 06:36:32;;;;;;;6.78;1.90;;;17.20;99.90;;;;;;5044297;28;20033;-84
2023/08/17 06:38:59;;;;;;;7.32;2.10;;;17.20;99.90;;;;;;5054420;28;20216;-84
2023/08/17 06:41:25;;;;;;;8.32;2.10;;;17.30;99.90;;;;;;5063167;28;20052;-83
2023/08/17 06:43:51;;;;;;;7.78;1.90;;;17.30;99.90;;;;;;5027774;28;20263;-83
2023/08/17 06:46:17;;;;;;;7.28;2.13;;;17.40;99.90;;;;;;5049297;28;20045;-83
2023/08/17 06:48:43;;;;;;;7.68;1.90;;;17.50;99.90;;;;;;5068086;28;20041;-83
2023/08/17 06:51:09;;;;;;;7.10;2.05;;;17.50;99.90;;;;;;5048649;28;20259;-84
2023/08/17 06:53:34;;;;;;;5.70;1.85;;;17.60;99.90;;;;;;5030226;28;20040;-84
2023/08/17 06:56:00;;;;;;;4.97;1.63;;;17.50;99.90;;;;;;5046951;28;20024;-84
2023/08/17 06:58:26;;;;;;;5.45;1.70;;;17.30;99.90;;;;;;5026425;28;20147;-83
2023/08/17 07:00:52;;;;;;;5.28;1.70;;;17.20;99.90;;;;;;5044860;28;20033;-83
2023/08/17 07:03:17;;;;;;;5.40;1.50;;;17.20;99.90;;;;;;5052274;28;20103;-84
2023/08/17 07:05:44;;;;;;;5.05;1.60;;;17.10;99.90;;;;;;5036253;28;20041;-83
2023/08/17 07:08:09;;;;;;;5.93;1.50;;;17.10;99.90;;;;;;5042564;28;20032;-83
2023/08/17 07:10:35;;;;;;;6.88;1.73;;;17.10;99.90;;;;;;5040686;28;20051;-83
2023/08/17 07:13:03;;;;;;;4.38;1.50;;;17.10;99.90;;;;;;5042845;28;20029;-84
2023/08/17 07:15:30;;;;;;;4.93;1.40;;;17.10;99.90;;;;;;5028257;28;20293;-84
2023/08/17 07:17:56;;;;;;;5.15;1.77;;;17.10;99.90;;;;;;5044819;28;20258;-85
2023/08/17 07:20:21;;;;;;;6.97;1.80;;;17.10;99.90;;;;;;5027576;28;20028;-85
2023/08/17 07:22:47;;;;;;;5.75;1.48;;;17.20;99.90;;;;;;5027189;28;20037;-84
2023/08/17 07:25:14;;;;;;;8.68;1.80;;;17.20;99.90;;;;;;5037431;28;20037;-84
2023/08/17 07:27:42;;;;;;;7.55;1.55;;;17.20;99.90;;;;;;5066808;28;20107;-84
2023/08/17 07:30:08;;;;;;;4.03;1.42;;;17.30;99.90;;;;;;5025103;28;20380;-83
2023/08/17 07:32:34;;;;;;;6.63;1.50;;;17.30;99.90;;;;;;5048704;28;20047;-83
2023/08/17 07:35:00;;;;;;;3.00;1.23;;;17.30;99.90;;;;;;5052609;28;20032;-83
2023/08/17 07:37:32;;;;;;;5.03;1.35;;;17.30;99.90;;;;;;5050067;28;20040;-83
2023/08/17 07:39:59;;;;;;;4.10;1.30;;;17.30;99.90;;;;;;5044465;28;20129;-83
2023/08/17 07:42:25;;;;;;;4.18;1.30;;;17.30;99.90;;;;;;5048656;28;20043;-83
2023/08/17 07:44:50;;;;;;;3.15;1.48;;;17.40;99.90;;;;;;5037751;28;20049;-83
2023/08/17 07:47:16;;;;;;;5.10;1.50;;;17.40;99.90;;;;;;5036048;28;20059;-84
2023/08/17 07:49:42;;;;;;;6.50;1.77;;;17.40;99.90;;;;;;5068370;28;20092;-83
2023/08/17 07:52:08;;;;;;;5.15;1.40;;;17.40;99.90;;;;;;5033601;28;20024;-84
2023/08/17 07:54:33;;;;;;;4.85;1.50;;;17.50;99.90;;;;;;5014326;28;20183;-83
2023/08/17 07:56:59;;;;;;;5.20;1.63;;;17.50;99.90;;;;;;5027154;28;20087;-84
2023/08/17 07:59:25;;;;;;;5.40;1.50;;;17.50;99.90;;;;;;5033998;28;20156;-83
2023/08/17 08:01:51;;;;;;;5.72;1.42;;;17.50;99.90;;;;;;5047450;28;20033;-83
2023/08/17 08:04:16;;;;;;;6.25;1.38;;;17.50;99.90;;;;;;5026448;28;20056;-82
2023/08/17 08:06:42;;;;;;;4.20;1.50;;;17.50;99.90;;;;;;5012061;28;20037;-83
2023/08/17 08:09:08;;;;;;;7.35;1.92;;;17.50;99.90;;;;;;5065636;28;20020;-83
2023/08/17 08:11:34;;;;;;;4.80;1.60;;;17.50;99.90;;;;;;5051578;28;20028;-83
2023/08/17 08:14:00;;;;;;;6.20;1.38;;;17.40;99.90;;;;;;5028263;28;20101;-83
2023/08/17 08:16:30;;;;;;;4.93;1.38;;;17.40;99.90;;;;;;5029337;28;20092;-82
2023/08/17 08:18:56;;;;;;;6.13;1.48;;;17.40;99.90;;;;;;5037875;28;20029;-83
2023/08/17 08:21:21;;;;;;;4.03;1.40;;;17.30;99.90;;;;;;5037780;28;20245;-83
2023/08/17 08:23:47;;;;;;;6.50;1.60;;;17.40;99.90;;;;;;5019313;28;20032;-85
2023/08/17 08:26:13;;;;;;;4.70;1.63;;;17.30;99.90;;;;;;5029673;28;20297;-83
2023/08/17 08:28:39;;;;;;;4.35;1.48;;;17.40;99.90;;;;;;5058579;28;20028;-83
2023/08/17 08:31:05;;;;;;;3.92;1.38;;;17.40;99.90;;;;;;5048419;28;20156;-83
2023/08/17 08:33:31;;;;;;;3.88;1.40;;;17.40;99.90;;;;;;5050067;28;20275;-83
2023/08/17 08:35:57;;;;;;;7.57;1.65;;;17.50;99.90;;;;;;5053616;28;20127;-84
2023/08/17 08:38:24;;;;;;;5.18;1.50;;;17.60;99.90;;;;;;5041353;28;20078;-83
2023/08/17 08:40:50;;;;;;;4.50;1.45;;;17.70;99.90;;;;;;5049165;28;20021;-84
2023/08/17 08:43:16;;;;;;;4.28;1.52;;;17.80;99.90;;;;;;5026169;28;20430;-83
2023/08/17 08:45:44;;;;;;;4.28;1.20;;;17.80;99.90;;;;;;5049217;28;20020;-83
2023/08/17 08:48:11;;;;;;;5.72;1.48;;;17.90;99.90;;;;;;5031007;28;20051;-84
2023/08/17 08:50:40;;;;;;;5.85;1.83;;;18.00;99.90;;;;;;5046059;28;20093;-84
2023/08/17 08:53:13;;;;;;;5.78;1.52;;;18.10;99.90;;;;;;5059362;28;20049;-84
2023/08/17 08:55:46;;;;;;;4.28;1.67;;;18.00;99.90;;;;;;5046424;28;20722;-84
2023/08/17 08:58:13;;;;;;;3.33;1.52;;;18.10;99.90;;;;;;5038027;28;21354;-84
2023/08/17 09:00:40;;;;;;;9.15;1.92;;;18.10;99.90;;;;;;5027229;28;20031;-83
2023/08/17 09:03:06;;;;;;;3.65;1.27;;;18.10;99.90;;;;;;5036409;28;20095;-84
2023/08/17 09:05:34;;;;;;;4.28;1.50;;;18.20;99.90;;;;;;5030689;28;20032;-83
2023/08/17 09:08:01;;;;;;;5.63;1.58;;;18.20;99.90;;;;;;5043695;28;20044;-83
2023/08/17 09:10:28;;;;;;;4.57;1.48;;;18.40;99.90;;;;;;5047527;28;20039;-83
2023/08/17 09:12:53;;;;;;;3.35;1.30;;;18.40;99.90;;;;;;5032763;28;20044;-84
2023/08/17 09:15:19;;;;;;;5.13;1.40;;;18.30;99.90;;;;;;5049618;28;20119;-84
2023/08/17 09:17:47;;;;;;;6.30;1.70;;;18.30;99.90;;;;;;5048936;28;20255;-84
2023/08/17 09:20:35;;;;;;;4.78;1.35;;;18.40;99.90;;;;;;5043738;28;20052;-84
2023/08/17 09:23:04;;;;;;;3.92;1.38;;;18.50;99.90;;;;;;5051333;28;20035;-84
2023/08/17 09:25:31;;;;;;;5.05;1.60;;;18.60;99.90;;;;;;5037745;28;20036;-84
2023/08/17 09:27:57;;;;;;;4.80;1.45;;;18.60;99.90;;;;;;5053827;28;20029;-83
2023/08/17 09:30:23;;;;;;;5.65;1.58;;;18.70;99.90;;;;;;5045949;28;20101;-84
2023/08/17 09:32:49;;;;;;;4.85;1.50;;;18.70;99.90;;;;;;5050932;28;20036;-83
2023/08/17 09:35:15;;;;;;;5.32;1.40;;;18.70;99.90;;;;;;5040327;28;20074;-85
2023/08/17 09:37:41;;;;;;;7.15;1.63;;;18.70;99.90;;;;;;5070570;28;20041;-84
2023/08/17 09:40:08;;;;;;;4.55;1.55;;;18.70;99.90;;;;;;5064462;28;20063;-83
2023/08/17 09:42:38;;;;;;;3.83;1.30;;;18.70;99.90;;;;;;5069019;28;20048;-84
2023/08/17 09:45:05;;;;;;;7.63;1.80;;;18.80;99.90;;;;;;5041282;28;20044;-84
2023/08/17 09:47:31;;;;;;;4.05;1.50;;;19.10;99.90;;;;;;5055776;28;20021;-85
2023/08/17 09:49:57;;;;;;;5.90;1.52;;;19.10;99.90;;;;;;5036066;28;20023;-84
2023/08/17 09:52:25;;;;;;;4.63;1.75;;;19.40;99.90;;;;;;5043157;28;20190;-84
2023/08/17 09:54:54;;;;;;;3.80;1.33;;;19.60;99.90;;;;;;5045940;28;20036;-86
2023/08/17 09:57:20;;;;;;;5.80;1.50;;;19.70;99.90;;;;;;5064684;28;20029;-84
2023/08/17 09:59:46;;;;;;;3.90;1.48;;;19.70;99.90;;;;;;5074587;28;20278;-85
2023/08/17 10:02:21;;;;;;;8.20;1.70;;;19.70;99.90;;;;;;5025958;28;20740;-84
2023/08/17 10:04:52;;;;;;;4.45;1.60;;;19.70;99.90;;;;;;5064420;28;20054;-83
2023/08/17 10:07:23;;;;;;;3.88;1.48;;;19.60;99.90;;;;;;5066312;28;20079;-82
2023/08/17 10:10:10;;;;;;;5.30;1.92;;;19.60;99.90;;;;;;5046521;28;20074;-82
2023/08/17 10:13:07;;;;;;;4.15;1.50;;;19.70;99.90;;;;;;5057245;28;20033;-82
2023/08/17 10:15:38;;;;;;;6.35;1.58;;;19.80;99.90;;;;;;5064299;28;20108;-83
2023/08/17 10:18:21;;;;;;;5.15;1.45;;;19.90;99.90;;;;;;5050303;28;20036;-81
2023/08/17 10:21:01;;;;;;;4.47;1.50;;;19.90;99.90;;;;;;5053890;28;20039;-82
2023/08/17 10:23:28;;;;;;;6.07;1.40;;;19.90;99.90;;;;;;5048285;28;20040;-82
2023/08/17 10:25:55;;;;;;;5.10;1.40;;;19.70;99.90;;;;;;5055475;28;20059;-83
2023/08/17 10:28:22;;;;;;;4.55;1.60;;;19.80;99.90;;;;;;5052177;28;20056;-82
2023/08/17 10:30:48;;;;;;;6.18;1.50;;;19.70;99.90;;;;;;5049561;28;20029;-84
2023/08/17 10:33:15;;;;;;;4.63;1.30;;;19.70;99.90;;;;;;5035553;28;20064;-82
2023/08/17 10:35:42;;;;;;;4.65;1.60;;;19.60;99.90;;;;;;5049649;28;20076;-82
2023/08/17 10:38:08;;;;;;;6.15;1.77;;;19.60;99.90;;;;;;5046871;28;20039;-83
2023/08/17 10:40:42;;;;;;;8.18;1.85;;;19.70;99.90;;;;;;5048604;28;20141;-81
2023/08/17 10:43:08;;;;;;;5.38;1.70;;;19.80;99.90;;;;;;5043073;28;20040;-82
2023/08/17 10:45:37;;;;;;;7.20;1.80;;;19.90;99.90;;;;;;5048752;28;20033;-83
2023/08/17 10:48:09;;;;;;;4.00;1.40;;;20.10;99.90;;;;;;5035252;28;20053;-82
2023/08/17 10:50:36;;;;;;;8.25;1.73;;;20.40;99.90;;;;;;5057318;28;20078;-83
2023/08/17 10:53:11;;;;;;;5.10;1.70;;;20.60;99.90;;;;;;5040321;28;20275;-83
2023/08/17 10:55:40;;;;;;;5.60;1.70;;;20.60;99.90;;;;;;5049246;28;20374;-82
2023/08/17 10:58:13;;;;;;;6.88;2.00;;;20.40;99.90;;;;;;5050463;28;20182;-84
2023/08/17 11:00:39;;;;;;;6.13;1.80;;;20.40;99.90;;;;;;5043089;28;20100;-83
2023/08/17 11:03:07;;;;;;;6.20;1.70;;;20.20;99.90;;;;;;5044538;28;20028;-82
2023/08/17 11:05:52;;;;;;;5.28;1.60;;;20.10;99.90;;;;;;5051815;28;20060;-83
2023/08/17 11:08:51;;;;;;;5.65;1.52;;;20.10;99.90;;;;;;5052405;28;20028;-82
2023/08/17 11:11:20;;;;;;;4.70;1.50;;;20.10;99.90;;;;;;5049315;28;20055;-81
2023/08/17 11:13:47;;;;;;;7.82;2.00;;;20.30;99.90;;;;;;5026765;28;20032;-82
2023/08/17 11:16:15;;;;;;;6.15;1.65;;;20.40;99.90;;;;;;5051184;28;20100;-82
2023/08/17 11:18:41;;;;;;;6.45;1.90;;;20.60;99.90;;;;;;5027162;28;20031;-81
2023/08/17 11:21:09;;;;;;;6.97;1.90;;;20.60;99.90;;;;;;5046448;28;20033;-80
2023/08/17 11:23:36;;;;;;;10.10;2.40;;;20.70;99.90;;;;;;5030084;28;20135;-82
2023/08/17 11:26:02;;;;;;;6.97;2.03;;;20.70;99.90;;;;;;5044340;28;20100;-82
2023/08/17 11:28:36;;;;;;;6.72;2.08;;;20.60;99.90;;;;;;5045231;28;20024;-81
2023/08/17 11:31:06;;;;;;;5.28;1.80;;;20.40;99.90;;;;;;5073516;28;20266;-83
2023/08/17 11:33:33;;;;;;;5.35;2.03;;;20.30;99.90;;;;;;5045593;28;20040;-82
2023/08/17 11:36:05;;;;;;;8.00;2.08;;;20.40;99.90;;;;;;5033596;28;20099;-82
2023/08/17 11:38:41;;;;;;;6.33;2.10;;;20.30;99.90;;;;;;5052838;28;20034;-82
2023/08/17 11:41:08;;;;;;;7.35;2.25;;;20.30;99.90;;;;;;5064652;28;20174;-82
2023/08/17 11:43:34;;;;;;;6.30;2.15;;;20.30;99.90;;;;;;5038923;28;20285;-83
2023/08/17 11:46:01;;;;;;;7.30;2.17;;;20.40;99.90;;;;;;5044483;28;21355;-82
2023/08/17 11:48:27;;;;;;;6.43;2.20;;;20.40;99.90;;;;;;5060895;28;20052;-81
2023/08/17 11:50:54;;;;;;;5.90;1.77;;;20.40;99.90;;;;;;5056085;28;20115;-82
2023/08/17 11:53:20;;;;;;;6.00;1.98;;;20.40;99.90;;;;;;5056672;28;20243;-82
2023/08/17 11:55:46;;;;;;;4.97;1.80;;;20.60;99.90;;;;;;5028961;28;20204;-82
2023/08/17 11:58:12;;;;;;;7.55;1.90;;;20.80;99.90;;;;;;5033077;28;21466;-83
2023/08/17 12:00:46;;;;;;;7.20;1.88;;;20.80;99.90;;;;;;5057155;28;20096;-82
2023/08/17 12:03:16;;;;;;;6.75;2.15;;;20.90;99.90;;;;;;5044685;28;20036;-82
2023/08/17 12:05:43;;;;;;;6.75;2.22;;;20.90;99.90;;;;;;5042292;28;20266;-82
2023/08/17 12:08:09;;;;;;;6.35;2.10;;;21.00;99.90;;;;;;5037466;28;20190;-81
2023/08/17 12:10:37;;;;;;;7.50;2.40;;;21.00;99.90;;;;;;5047367;28;20025;-82
2023/08/17 12:13:03;;;;;;;6.00;2.00;;;21.00;99.90;;;;;;5062592;28;20047;-83
2023/08/17 12:15:33;;;;;;;5.82;2.05;;;21.00;99.90;;;;;;5028873;28;20016;-82
2023/08/17 12:18:03;;;;;;;5.78;1.85;;;21.10;99.90;;;;;;5036858;28;20071;-81
2023/08/17 12:20:30;;;;;;;6.80;2.08;;;21.10;99.90;;;;;;5066454;28;20293;-83
2023/08/17 12:22:59;;;;;;;8.57;2.10;;;21.00;99.90;;;;;;5051264;28;20041;-83
2023/08/17 12:25:25;;;;;;;8.13;2.15;;;21.10;99.90;;;;;;5049614;28;20048;-83
2023/08/17 12:27:51;;;;;;;6.72;2.05;;;21.00;99.90;;;;;;5028243;28;20186;-82
2023/08/17 12:30:30;;;;;;;6.72;2.13;;;20.90;99.90;;;;;;5056441;28;20127;-84
2023/08/17 12:32:55;;;;;;;6.78;2.20;;;20.90;99.90;;;;;;5041667;28;20030;-82
2023/08/17 12:35:23;;;;;;;7.32;2.00;;;20.90;99.90;;;;;;5031376;28;20033;-83
2023/08/17 12:37:49;;;;;;;9.00;2.28;;;20.90;99.90;;;;;;5047094;28;20210;-83
2023/08/17 12:40:15;;;;;;;4.90;1.90;;;20.90;99.90;;;;;;5026885;28;20178;-83
2023/08/17 12:42:41;;;;;;;5.95;1.92;;;20.90;99.90;;;;;;5011021;28;20112;-82
2023/08/17 12:45:07;;;;;;;9.35;2.45;;;20.80;99.90;;;;;;5056685;28;20028;-82